Latest Weather Observations for ACT PCS2

IDN60901

Issued at 5:41 am EST Monday 6 April 2020 (issued every 10 minutes, with the page automatically refreshed every 10 minutes)

About weather observations | Map of Canberra area stations | Latest observations for Canberra area | Other Formats
Station Details ID: 250105 Name: ACT PCS2 Lat: -35.33 Lon: 149.05 Height: 552.0 m

Portable automatic weather stations (PAWS) are operated by other organisations, such as Fire and Emergency Services, and are included here by agreement. Portable stations may be deployed to a location for a short period and their location may be subject to change without notice. Wind observations from these stations are provided from heights of either three (3) or ten (10) metres above ground level (AGL).

Data from the previous 72 hours. | See also: Recent months for locations in Aust Capital Territory
Date/Time
EST
Temp
°C
App
Temp
°C
Dew
Point
°C
Rel
Hum
%
Delta-T
°C
Wind Press
QNH
hPa
Press
MSL
hPa
Rain since
9am
mm
Dir  Spd
km/h
Gust
km/h
Spd
kts
Gust
kts
06/05:30am 11.2 9.9 10.0 92 0.6 NNW 7 9 4 5 - - 0.4
06/05:20am 11.1 9.8 9.9 92 0.6 NNW 7 7 4 4 - - 0.4
06/05:10am 11.0 9.9 9.8 92 0.6 NNW 6 7 3 4 - - 0.4
06/05:00am 11.0 9.7 9.8 92 0.6 NNW 7 11 4 6 - - 0.4
06/04:50am 10.9 9.5 9.7 92 0.6 NW 7 9 4 5 - - 0.4
06/04:40am 10.8 9.0 9.6 92 0.6 NW 9 11 5 6 - - 0.4
06/04:30am 10.8 9.0 9.5 92 0.7 NW 9 11 5 6 - - 0.4
06/04:20am 10.8 9.4 9.5 92 0.7 NW 7 11 4 6 - - 0.4
06/04:10am 10.8 9.4 9.5 92 0.7 NW 7 9 4 5 - - 0.4
06/04:00am 10.8 9.0 9.5 92 0.7 NW 9 11 5 6 - - 0.4
06/03:50am 10.9 9.1 9.5 91 0.7 NW 9 11 5 6 - - 0.4
06/03:40am 10.8 9.4 9.4 91 0.7 NW 7 9 4 5 - - 0.4
06/03:30am 10.9 9.1 9.5 91 0.7 NW 9 11 5 6 - - 0.4
06/03:20am 11.0 8.8 9.5 90 0.8 NW 11 13 6 7 - - 0.4
06/03:10am 11.1 8.9 9.5 90 0.8 NW 11 13 6 7 - - 0.4
06/03:00am 11.1 9.0 9.6 90 0.8 NW 11 13 6 7 - - 0.4
06/02:50am 11.1 9.0 9.6 90 0.8 NW 11 13 6 7 - - 0.2
06/02:40am 11.1 9.0 9.6 90 0.8 NW 11 13 6 7 - - 0.2
06/02:30am 11.1 9.0 9.6 90 0.8 NW 11 13 6 7 - - 0.2
06/02:20am 11.1 9.0 9.6 90 0.8 NW 11 13 6 7 - - 0.2
06/02:10am 11.1 9.3 9.6 90 0.8 NW 9 11 5 6 - - 0.2
06/02:00am 11.1 9.3 9.6 90 0.8 NW 9 11 5 6 - - 0.2
06/01:50am 11.1 9.3 9.6 90 0.8 NW 9 11 5 6 - - 0.2
06/01:40am 11.2 9.8 9.5 89 0.9 NNW 7 9 4 5 - - 0.2
06/01:30am 11.4 10.0 9.5 88 1.0 NW 7 7 4 4 - - 0.2
06/01:20am 11.5 10.1 9.5 87 1.0 NNW 7 9 4 5 - - 0.2
06/01:10am 11.6 10.2 9.4 86 1.1 NW 7 9 4 5 - - 0.2
06/01:00am 11.7 10.2 9.2 85 1.3 NW 7 9 4 5 - - 0.2
06/12:50am 11.8 10.3 9.2 84 1.3 NW 7 9 4 5 - - 0.0
06/12:40am 11.9 10.3 8.9 82 1.5 NW 7 9 4 5 - - 0.0
06/12:30am 12.0 10.4 8.9 81 1.6 NNW 7 9 4 5 - - 0.0
06/12:20am 11.9 10.3 8.7 81 1.6 NNW 7 9 4 5 - - 0.0
06/12:10am 11.8 9.8 8.7 81 1.6 NW 9 11 5 6 - - 0.0
06/12:00am 11.8 9.8 8.8 82 1.5 NW 9 11 5 6 - - 0.0
 
Date/Time
EST
Temp
°C
App
Temp
°C
Dew
Point
°C
Rel
Hum
%
Delta-T
°C
Wind Press
QNH
hPa
Press
MSL
hPa
Rain since
9am
mm
Dir  Spd
km/h
Gust
km/h
Spd
kts
Gust
kts
05/11:50pm 11.8 9.8 8.7 81 1.6 NW 9 9 5 5 - - 0.0
05/11:40pm 11.8 9.8 8.6 81 1.6 NW 9 13 5 7 - - 0.0
05/11:30pm 11.7 9.7 8.5 81 1.6 NW 9 11 5 6 - - 0.0
05/11:20pm 11.7 9.7 8.8 82 1.5 NW 9 15 5 8 - - 0.0
05/11:10pm 11.7 9.3 8.6 81 1.6 NW 11 13 6 7 - - 0.0
05/11:00pm 11.8 9.4 8.6 81 1.6 NW 11 13 6 7 - - 0.0
05/10:50pm 11.8 9.8 8.6 81 1.6 NW 9 11 5 6 - - 0.0
05/10:40pm 12.0 9.6 8.5 79 1.8 NW 11 15 6 8 - - 0.0
05/10:30pm 12.1 9.6 8.4 78 1.9 NW 11 15 6 8 - - 0.0
05/10:20pm 12.2 9.7 8.1 76 2.1 NW 11 13 6 7 - - 0.0
05/10:10pm 12.3 9.8 8.1 75 2.1 NW 11 15 6 8 - - 0.0
05/10:00pm 12.4 10.2 7.9 74 2.3 NW 9 11 5 6 - - 0.0
05/09:50pm 12.4 10.2 7.8 73 2.3 NW 9 11 5 6 - - 0.0
05/09:40pm 12.4 10.6 8.0 74 2.2 NW 7 11 4 6 - - 0.0
05/09:30pm 12.5 10.2 7.6 72 2.5 NW 9 13 5 7 - - 0.0
05/09:20pm 12.5 10.3 7.7 72 2.4 NW 9 11 5 6 - - 0.0
05/09:10pm 12.6 10.7 7.6 71 2.5 NW 7 11 4 6 - - 0.0
05/09:00pm 12.5 10.6 7.5 71 2.5 NW 7 9 4 5 - - 0.0
05/08:50pm 12.5 10.2 7.4 71 2.6 NW 9 13 5 7 - - 0.0
05/08:40pm 12.6 10.4 7.7 72 2.5 NW 9 11 5 6 - - 0.0
05/08:30pm 12.6 10.3 7.3 70 2.6 NW 9 13 5 7 - - 0.0
05/08:20pm 12.5 10.6 7.4 71 2.6 NW 7 11 4 6 - - 0.0
05/08:10pm 12.4 10.1 7.4 71 2.5 NW 9 11 5 6 - - 0.0
05/08:00pm 12.4 10.4 7.1 70 2.6 NNW 7 11 4 6 - - 0.0
05/07:50pm 12.3 10.3 7.0 70 2.6 NW 7 11 4 6 - - 0.0
05/07:40pm 12.3 10.3 7.1 70 2.6 NNW 7 9 4 5 - - 0.0
05/07:30pm 12.2 9.8 7.1 71 2.5 NW 9 15 5 8 - - 0.0
05/07:20pm 12.2 9.8 7.1 71 2.5 NW 9 11 5 6 - - 0.0
05/07:10pm 12.2 9.8 7.1 71 2.5 NNW 9 11 5 6 - - 0.0
05/07:00pm 12.1 9.7 7.0 71 2.5 NW 9 13 5 7 - - 0.0
05/06:50pm 12.1 9.7 7.0 71 2.5 NW 9 11 5 6 - - 0.0
05/06:40pm 12.0 9.6 6.9 71 2.5 NW 9 11 5 6 - - 0.0
05/06:30pm 11.9 9.1 7.0 72 2.4 NW 11 13 6 7 - - 0.0
05/06:20pm 11.8 9.0 7.0 72 2.4 NW 11 13 6 7 - - 0.0
05/06:10pm 11.9 9.1 7.0 72 2.4 NW 11 13 6 7 - - 0.0
05/06:00pm 12.0 9.2 7.0 71 2.5 NW 11 15 6 8 - - 0.0
05/05:50pm 12.1 9.3 6.9 70 2.6 NW 11 13 6 7 - - 0.0
05/05:40pm 12.2 9.4 6.8 69 2.7 NW 11 13 6 7 - - 0.0
05/05:30pm 12.3 9.4 6.6 68 2.8 WNW 11 15 6 8 - - 0.0
05/05:20pm 12.4 9.6 6.8 68 2.8 WNW 11 15 6 8 - - 0.0
05/05:10pm 12.5 9.7 6.8 68 2.8 NW 11 13 6 7 - - 0.0
05/05:00pm 12.6 10.6 6.9 68 2.8 NW 7 9 4 5 - - 0.0
05/04:50pm 12.6 9.3 6.4 66 3.0 WNW 13 15 7 8 - - 0.0
05/04:40pm 12.7 9.8 6.7 67 3.0 WNW 11 15 6 8 - - 0.0
05/04:30pm 12.7 9.3 6.0 63 3.3 WNW 13 15 7 8 - - 0.0
05/04:20pm 12.7 9.3 5.9 63 3.3 WNW 13 19 7 10 - - 0.0
05/04:10pm 12.8 9.4 5.7 62 3.4 WNW 13 15 7 8 - - 0.0
05/04:00pm 12.8 9.3 5.4 60 3.6 WNW 13 19 7 10 - - 0.0
05/03:50pm 12.6 9.5 5.7 63 3.3 NW 11 13 6 7 - - 0.0
05/03:40pm 12.4 9.4 6.1 65 3.1 NW 11 13 6 7 - - 0.0
05/03:30pm 12.3 8.5 5.9 65 3.1 WNW 15 19 8 10 - - 0.0
05/03:20pm 12.4 8.9 5.5 63 3.3 WNW 13 17 7 9 - - 0.0
05/03:10pm 12.3 8.8 5.5 63 3.3 WNW 13 15 7 8 - - 0.0
05/03:00pm 12.5 9.0 5.5 62 3.4 WNW 13 17 7 9 - - 0.0
05/02:50pm 12.7 9.2 5.5 61 3.5 WNW 13 17 7 9 - - 0.0
05/02:40pm 12.7 9.5 5.2 60 3.6 WNW 11 15 6 8 - - 0.0
05/02:30pm 12.8 9.2 5.1 59 3.7 WNW 13 15 7 8 - - 0.0
05/02:20pm 12.9 9.3 5.0 58 3.8 WNW 13 17 7 9 - - 0.0
05/02:10pm 13.1 9.1 4.7 56 4.0 WNW 15 17 8 9 - - 0.0
05/02:00pm 13.0 8.9 4.6 56 4.0 WNW 15 22 8 12 - - 0.0
05/01:50pm 13.0 9.0 4.9 58 3.9 W 15 20 8 11 - - 0.0
05/01:40pm 13.0 9.0 4.7 57 3.9 WNW 15 19 8 10 - - 0.0
05/01:30pm 13.1 9.9 4.9 57 3.9 WNW 11 15 6 8 - - 0.0
05/01:20pm 13.1 9.5 5.0 58 3.9 WNW 13 17 7 9 - - 0.0
05/01:10pm 12.7 9.5 4.9 59 3.7 W 11 15 6 8 - - 0.0
05/01:00pm 12.9 8.8 4.6 57 3.9 WNW 15 19 8 10 - - 0.0
05/12:50pm 13.0 9.3 4.7 57 3.9 WNW 13 17 7 9 - - 0.0
05/12:40pm 12.8 9.5 4.5 57 3.9 W 11 11 6 6 - - 0.0
05/12:30pm 12.8 9.9 4.6 57 3.9 WSW 9 13 5 7 - - 0.0
05/12:20pm 12.9 9.6 4.7 57 3.9 W 11 15 6 8 - - 0.0
05/12:10pm 12.7 9.5 5.0 59 3.7 WSW 11 13 6 7 - - 0.0
05/12:00pm 12.9 9.6 4.8 58 3.8 WSW 11 17 6 9 - - 0.0
05/11:50am 13.3 9.7 5.0 57 4.0 W 13 17 7 9 - - 0.0
05/11:40am 13.7 10.0 4.4 53 4.4 W 13 20 7 11 - - 0.0
05/11:30am 13.9 9.8 4.2 52 4.6 W 15 17 8 9 - - 0.0
05/11:20am 13.4 9.3 4.3 54 4.3 WNW 15 20 8 11 - - 0.0
05/11:10am 14.0 9.5 4.2 51 4.6 WNW 17 22 9 12 - - 0.0
05/11:00am 13.4 9.3 4.5 55 4.2 W 15 19 8 10 - - 0.0
05/10:50am 12.5 8.2 3.4 54 4.2 WNW 15 19 8 10 - - 0.0
05/10:40am 12.8 9.0 3.9 54 4.1 WNW 13 17 7 9 - - 0.0
05/10:30am 12.3 8.9 3.8 56 3.9 W 11 15 6 8 - - 0.0
05/10:20am 12.1 7.9 3.9 57 3.8 W 15 19 8 10 - - 0.0
05/10:10am 12.1 8.3 3.7 56 3.9 W 13 15 7 8 - - 0.0
05/10:00am 12.1 7.8 3.4 55 4.0 WNW 15 19 8 10 - - 0.0
05/09:50am 11.9 8.1 3.7 57 3.8 WNW 13 15 7 8 - - 0.0
05/09:40am 11.9 8.4 3.4 56 3.9 W 11 13 6 7 - - 0.0
05/09:30am 11.5 8.0 3.4 57 3.7 W 11 17 6 9 - - 0.0
05/09:20am 11.7 7.8 3.3 56 3.8 W 13 19 7 10 - - 0.0
05/09:10am 11.4 7.8 2.8 55 3.9 W 11 15 6 8 - - 0.0
05/09:00am 10.8 7.2 2.8 57 3.6 W 11 13 6 7 - - 0.4
05/08:50am 10.9 7.3 3.0 58 3.5 WNW 11 17 6 9 - - 0.4
05/08:40am 11.0 7.4 2.8 57 3.7 W 11 19 6 10 - - 0.4
05/08:30am 11.6 8.0 2.7 54 4.0 W 11 19 6 10 - - 0.4
05/08:20am 11.6 8.7 2.6 54 4.0 WSW 7 11 4 6 - - 0.4
05/08:10am 11.2 7.6 2.7 56 3.8 W 11 13 6 7 - - 0.4
05/08:00am 11.3 8.0 2.6 55 3.9 WSW 9 17 5 9 - - 0.4
05/07:50am 11.6 9.3 2.9 55 3.9 WSW 4 6 2 3 - - 0.4
05/07:40am 11.7 9.2 3.9 59 3.6 WNW 6 7 3 4 - - 0.4
05/07:30am 11.6 9.0 3.4 57 3.7 WNW 6 9 3 5 - - 0.4
05/07:20am 11.2 8.5 3.5 59 3.5 WNW 7 11 4 6 - - 0.4
05/07:10am 11.0 7.8 3.2 58 3.5 WNW 9 13 5 7 - - 0.4
05/07:00am 10.5 7.3 2.9 59 3.4 W 9 13 5 7 - - 0.4
05/06:50am 10.2 7.1 3.4 62 3.1 W 9 13 5 7 - - 0.4
05/06:40am 10.2 7.1 3.4 62 3.1 W 9 11 5 6 - - 0.4
05/06:30am 10.2 7.7 3.6 63 3.0 W 6 7 3 4 - - 0.4
05/06:20am 10.2 7.4 3.4 62 3.1 W 7 11 4 6 - - 0.4
05/06:10am 10.2 7.7 3.8 64 2.9 W 6 9 3 5 - - 0.4
05/06:00am 10.3 7.3 3.9 64 2.9 W 9 15 5 8 - - 0.4
05/05:50am 10.2 7.4 3.3 62 3.1 W 7 13 4 7 - - 0.4
05/05:40am 10.4 8.0 4.1 65 2.9 NW 6 7 3 4 - - 0.4
05/05:30am 10.4 7.8 4.0 64 2.9 WNW 7 13 4 7 - - 0.4
05/05:20am 10.5 7.2 4.7 67 2.7 W 11 19 6 10 - - 0.4
05/05:10am 10.5 7.5 4.1 64 2.9 W 9 13 5 7 - - 0.4
05/05:00am 10.7 6.5 3.6 61 3.2 W 15 20 8 11 - - 0.4
05/04:50am 10.2 6.7 3.6 63 3.0 W 11 15 6 8 - - 0.4
05/04:40am 10.3 6.9 4.0 65 2.9 WSW 11 13 6 7 - - 0.4
05/04:30am 10.5 6.4 4.1 64 2.9 WSW 15 20 8 11 - - 0.4
05/04:20am 10.4 6.6 3.9 64 3.0 W 13 19 7 10 - - 0.4
05/04:10am 10.4 6.7 4.4 66 2.8 W 13 17 7 9 - - 0.4
05/04:00am 10.5 6.8 4.4 66 2.8 W 13 17 7 9 - - 0.4
05/03:50am 10.5 6.7 4.1 64 2.9 W 13 19 7 10 - - 0.4
05/03:40am 10.5 6.4 4.6 67 2.7 W 15 19 8 10 - - 0.4
05/03:30am 10.3 6.2 4.4 67 2.7 W 15 17 8 9 - - 0.4
05/03:20am 10.3 6.2 4.3 66 2.8 W 15 20 8 11 - - 0.4
05/03:10am 10.4 6.3 4.2 65 2.8 W 15 19 8 10 - - 0.4
05/03:00am 10.4 5.9 4.0 64 2.9 W 17 19 9 10 - - 0.4
05/03:50am 10.4 6.3 4.3 66 2.8 W 15 17 8 9 - - 0.4
05/03:40am 10.5 6.3 3.9 63 3.0 W 15 17 8 9 - - 0.4
05/03:30am 10.5 6.3 4.0 64 3.0 W 15 20 8 11 - - 0.4
05/03:20am 10.7 6.5 4.0 63 3.1 W 15 19 8 10 - - 0.4
05/03:10am 10.7 6.2 4.1 63 3.0 W 17 19 9 10 - - 0.4
05/03:00am 10.7 6.6 4.3 64 3.0 WNW 15 17 8 9 - - 0.4
05/02:50am 10.8 6.7 4.5 65 2.9 W 15 19 8 10 - - 0.4
05/02:40am 10.8 7.1 4.6 65 2.9 W 13 17 7 9 - - 0.4
05/02:30am 10.9 7.3 4.9 66 2.8 W 13 15 7 8 - - 0.4
05/02:20am 10.9 7.7 4.9 66 2.8 WNW 11 15 6 8 - - 0.4
05/02:10am 10.8 7.6 5.1 68 2.7 WNW 11 15 6 8 - - 0.4
05/02:00am 10.9 7.6 4.8 66 2.9 WNW 11 13 6 7 - - 0.4
05/01:50am 10.9 7.2 4.5 64 3.0 WNW 13 17 7 9 - - 0.4
05/01:40am 10.8 7.7 5.4 69 2.6 NW 11 15 6 8 - - 0.4
05/01:30am 10.7 7.1 4.9 67 2.7 WNW 13 17 7 9 - - 0.4
05/01:20am 10.7 8.0 5.7 71 2.4 WNW 9 11 5 6 - - 0.4
05/01:10am 10.9 7.3 4.8 66 2.9 WNW 13 17 7 9 - - 0.4
05/01:00am 10.8 7.6 5.1 68 2.7 WNW 11 13 6 7 - - 0.4
05/12:50am 10.8 7.6 5.2 68 2.6 WNW 11 15 6 8 - - 0.4
05/12:40am 10.9 7.7 5.2 68 2.7 NW 11 15 6 8 - - 0.4
05/12:30am 10.7 7.6 5.6 71 2.4 NW 11 17 6 9 - - 0.4
05/12:20am 10.7 7.2 5.6 71 2.4 WNW 13 17 7 9 - - 0.4
05/12:10am 10.8 7.3 5.6 70 2.5 WNW 13 15 7 8 - - 0.4
05/12:00am 10.9 7.8 5.6 70 2.5 NW 11 17 6 9 - - 0.4
 
Date/Time
EST
Temp
°C
App
Temp
°C
Dew
Point
°C
Rel
Hum
%
Delta-T
°C
Wind Press
QNH
hPa
Press
MSL
hPa
Rain since
9am
mm
Dir  Spd
km/h
Gust
km/h
Spd
kts
Gust
kts
04/11:50pm 10.7 7.7 5.9 72 2.3 WNW 11 15 6 8 - - 0.4
04/11:40pm 10.8 7.8 6.0 72 2.3 WNW 11 15 6 8 - - 0.4
04/11:30pm 11.0 8.1 6.4 73 2.2 NW 11 13 6 7 - - 0.4
04/11:20pm 10.9 8.4 6.4 74 2.2 NW 9 11 5 6 - - 0.4
04/11:10pm 10.9 7.1 5.9 71 2.4 WNW 15 19 8 10 - - 0.4
04/11:00pm 10.9 7.9 5.8 71 2.4 NW 11 17 6 9 - - 0.4
04/10:50pm 10.8 8.2 5.9 72 2.3 NW 9 11 5 6 - - 0.4
04/10:40pm 10.7 7.7 5.8 72 2.3 NW 11 15 6 8 - - 0.4
04/10:30pm 10.6 8.0 6.2 74 2.1 NW 9 13 5 7 - - 0.4
04/10:20pm 10.8 7.8 6.2 73 2.2 NW 11 19 6 10 - - 0.4
04/10:10pm 10.7 7.8 6.3 74 2.1 WNW 11 13 6 7 - - 0.4
04/10:00pm 10.7 7.0 6.3 74 2.1 WNW 15 19 8 10 - - 0.4
04/09:50pm 11.0 7.1 6.9 76 2.0 W 17 22 9 12 - - 0.2
04/09:40pm 11.6 8.5 7.4 75 2.1 WNW 13 17 7 9 - - 0.2
04/09:30pm 11.9 9.0 6.5 69 2.6 NW 11 13 6 7 - - 0.0
04/09:20pm 12.0 9.6 6.9 71 2.5 NW 9 13 5 7 - - 0.0
04/09:10pm 12.1 9.2 6.4 68 2.8 NW 11 15 6 8 - - 0.0
04/09:00pm 12.1 9.7 6.8 70 2.6 NW 9 11 5 6 - - 0.0
04/08:50pm 12.1 9.1 6.1 67 2.9 NW 11 13 6 7 - - 0.0
04/08:40pm 12.0 9.0 5.9 66 2.9 WNW 11 17 6 9 - - 0.0
04/08:30pm 12.0 8.7 6.2 67 2.8 WNW 13 17 7 9 - - 0.0
04/08:20pm 11.9 9.3 5.9 66 2.9 NW 9 13 5 7 - - 0.0
04/08:10pm 11.8 9.2 5.9 67 2.8 WNW 9 11 5 6 - - 0.0
04/08:00pm 11.7 8.2 5.4 65 3.0 WNW 13 19 7 10 - - 0.0
04/07:50pm 11.5 8.9 6.1 69 2.6 NW 9 13 5 7 - - 0.0
04/07:40pm 11.5 8.1 6.0 69 2.7 WNW 13 19 7 10 - - 0.0
04/07:30pm 11.5 7.6 5.5 66 2.9 WNW 15 19 8 10 - - 0.0
04/07:20pm 11.5 7.3 5.8 68 2.7 WNW 17 20 9 11 - - 0.0
04/07:10pm 11.5 7.0 6.0 69 2.7 WNW 19 22 10 12 - - 0.0
04/07:00pm 11.7 7.6 6.4 70 2.6 W 17 22 9 12 - - 0.0
04/06:50pm 12.1 8.2 7.2 72 2.4 W 17 19 9 10 - - 0.0
04/06:40pm 12.6 8.6 6.8 68 2.9 WNW 17 22 9 12 - - 0.0
04/06:30pm 12.7 8.3 6.5 66 3.0 WNW 19 22 10 12 - - 0.0
04/06:20pm 12.8 8.2 6.5 65 3.1 WNW 20 24 11 13 - - 0.0
04/06:10pm 13.3 8.8 6.1 61 3.5 WNW 19 26 10 14 - - 0.0
04/06:00pm 13.4 9.6 7.5 67 3.0 WNW 17 20 9 11 - - 0.0
04/05:50pm 13.7 10.0 7.9 68 3.0 WNW 17 19 9 10 - - 0.0
04/05:40pm 13.1 9.8 7.9 70 2.6 WNW 15 17 8 9 - - 0.0
04/05:30pm 13.2 9.6 8.2 71 2.6 WNW 17 19 9 10 - - 0.0
04/05:20pm 13.0 9.0 8.1 72 2.5 WNW 19 22 10 12 - - 0.0
04/05:10pm 13.4 9.5 8.8 74 2.4 WNW 19 20 10 11 - - 0.0
04/05:00pm 14.3 10.1 7.3 63 3.5 W 19 24 10 13 - - 0.0
04/04:50pm 14.9 11.4 7.4 61 3.8 WNW 15 20 8 11 - - 0.0
04/04:40pm 14.7 11.1 8.5 66 3.2 WNW 17 22 9 12 - - 0.0
04/04:30pm 14.3 10.7 8.2 67 3.1 WNW 17 20 9 11 - - 0.0
04/04:20pm 14.0 10.5 8.9 71 2.7 NW 17 19 9 10 - - 0.0
04/04:10pm 14.1 10.0 8.5 69 2.9 WNW 20 26 11 14 - - 0.0
04/04:00pm 14.2 10.3 8.5 68 3.0 WNW 19 22 10 12 - - 0.0
04/03:50pm 14.4 10.2 7.3 62 3.6 WNW 19 28 10 15 - - 0.0
04/03:40pm 14.3 9.9 7.2 62 3.6 WNW 20 24 11 13 - - 0.0
04/03:30pm 14.4 10.2 7.5 63 3.5 WNW 19 22 10 12 - - 0.0
04/03:20pm 14.9 10.1 7.4 61 3.8 W 22 28 12 15 - - 0.0
04/03:10pm 14.5 10.8 7.8 64 3.4 W 17 20 9 11 - - 0.0
04/03:00pm 14.5 11.0 7.1 61 3.7 WSW 15 19 8 10 - - 0.0
04/02:50pm 15.4 12.1 8.1 61 3.8 W 15 17 8 9 - - 0.0
04/02:40pm 14.7 9.7 6.6 58 4.0 W 22 28 12 15 - - 0.0
04/02:30pm 15.5 10.3 5.6 51 4.9 W 22 28 12 15 - - 0.0
04/02:20pm 16.5 11.1 6.3 51 5.1 W 24 28 13 15 - - 0.0
04/02:10pm 16.3 10.7 5.6 49 5.3 WNW 24 30 13 16 - - 0.0
04/02:00pm 15.7 11.3 7.3 57 4.3 WNW 20 26 11 14 - - 0.0
04/01:50pm 15.6 11.3 7.8 59 4.0 WNW 20 22 11 12 - - 0.0
04/01:40pm 15.2 11.5 7.9 61 3.8 WNW 17 22 9 12 - - 0.0
04/01:30pm 14.0 10.4 8.5 69 2.8 W 17 20 9 11 - - 0.0
04/01:20pm 13.7 10.3 9.0 73 2.5 W 17 22 9 12 - - 0.0
04/01:10pm 14.3 10.3 8.3 67 3.1 W 19 20 10 11 - - 0.0
04/01:00pm 14.6 10.9 8.1 65 3.3 W 17 22 9 12 - - 0.0
04/12:50pm 14.5 10.5 8.2 66 3.2 W 19 20 10 11 - - 0.0
04/12:40pm 15.1 10.9 8.1 63 3.6 W 20 24 11 13 - - 0.0
04/12:30pm 15.5 11.9 8.2 62 3.8 WNW 17 20 9 11 - - 0.0
04/12:20pm 14.8 10.9 8.7 67 3.2 WNW 19 22 10 12 - - 0.0
04/12:10pm 15.0 10.9 7.7 61 3.7 WNW 19 28 10 15 - - 0.0
04/12:00pm 14.7 11.7 9.1 69 2.9 W 15 19 8 10 - - 0.0
04/11:50am 15.0 11.5 8.9 67 3.2 WNW 17 22 9 12 - - 0.0
04/11:40am 15.0 11.1 8.7 66 3.3 WNW 19 24 10 13 - - 0.0
04/11:30am 14.8 10.8 9.0 68 3.0 WNW 20 24 11 13 - - 0.0
04/11:20am 14.4 10.1 9.2 71 2.7 WNW 22 28 12 15 - - 0.0
04/11:10am 14.8 10.6 9.7 71 2.7 WNW 22 28 12 15 - - 0.0
04/11:00am 14.9 10.3 9.8 71 2.7 WNW 24 28 13 15 - - 0.0
04/10:50am 15.5 11.4 10.0 70 3.0 WNW 22 26 12 14 - - 0.0
04/10:40am 15.5 11.3 9.8 69 3.1 WNW 22 26 12 14 - - 0.0
04/10:30am 15.8 12.4 10.6 71 2.8 W 19 22 10 12 - - 0.0
04/10:20am 16.2 12.6 10.4 68 3.2 WNW 20 28 11 15 - - 0.0
04/10:10am 17.1 14.1 10.6 65 3.6 WNW 17 22 9 12 - - 0.0
04/10:00am 16.5 14.5 11.5 72 2.8 WNW 13 19 7 10 - - 7.4
04/09:50am 16.2 14.2 11.5 73 2.6 NW 13 15 7 8 - - 7.4
04/09:40am 16.6 15.2 12.2 75 2.5 NW 11 13 6 7 - - 7.2
04/09:30am 16.1 15.7 13.0 82 1.8 NW 7 11 4 6 - - 7.2
04/09:20am 15.1 14.7 13.0 87 1.2 NNW 7 9 4 5 - - 7.2
04/09:10am 14.9 14.5 13.1 89 1.0 NNW 7 7 4 4 - - 7.0
04/09:00am 14.6 14.3 13.2 91 0.8 NW 7 9 4 5 - - 7.0
04/08:50am 14.4 13.7 13.2 92 0.7 NW 9 11 5 6 - - 6.8
04/08:40am 14.3 14.0 13.2 93 0.6 NW 7 9 4 5 - - 6.8
04/08:30am 14.2 13.5 13.1 93 0.6 NNW 9 11 5 6 - - 6.6
04/08:20am 14.1 13.4 13.1 94 0.6 NNW 9 11 5 6 - - 6.4
04/08:10am 14.0 13.2 13.0 94 0.6 NW 9 13 5 7 - - 6.4
04/08:00am 13.9 13.1 13.0 94 0.5 NNW 9 11 5 6 - - 6.2
04/07:50am 13.9 13.5 13.0 94 0.5 NNW 7 9 4 5 - - 6.0
04/07:40am 13.7 12.9 12.8 94 0.5 NW 9 11 5 6 - - 6.0
04/07:30am 13.6 13.1 12.7 94 0.5 NW 7 9 4 5 - - 5.8
04/07:20am 13.7 13.2 12.7 94 0.6 NNW 7 9 4 5 - - 5.6
04/07:10am 13.7 13.2 12.7 94 0.6 NNW 7 7 4 4 - - 5.6
04/07:00am 13.6 13.3 12.6 94 0.6 NNW 6 7 3 4 - - 5.4
04/06:50am 13.6 13.7 12.6 94 0.6 NW 4 6 2 3 - - 5.2
04/06:40am 13.5 13.1 12.5 94 0.6 WNW 6 7 3 4 - - 5.0
04/06:30am 13.4 13.8 12.4 94 0.6 SW 2 4 1 2 - - 4.8
04/06:20am 13.4 13.8 12.4 94 0.6 E 2 4 1 2 - - 4.6
04/06:10am 13.5 13.5 12.5 94 0.6 E 4 6 2 3 - - 4.4
04/06:00am 13.5 13.5 12.5 94 0.6 NNE 4 6 2 3 - - 4.4
04/05:50am 13.5 13.9 12.5 94 0.6 N 2 4 1 2 - - 4.2
04/05:40am 13.6 14.0 12.6 94 0.6 N 2 4 1 2 - - 4.0
04/05:30am 13.6 13.7 12.6 94 0.6 N 4 4 2 2 - - 3.8
04/05:20am 13.7 14.1 12.6 93 0.6 WNW 2 4 1 2 - - 3.6
04/05:10am 13.7 14.1 12.6 93 0.6 W 2 4 1 2 - - 3.4
04/05:00am 13.7 14.5 12.6 93 0.6 CALM 0 2 0 1 - - 3.2
04/04:50am 13.7 14.2 12.7 94 0.6 NW 2 2 1 1 - - 3.2
04/04:40am 13.7 14.5 12.6 93 0.6 CALM 0 2 0 1 - - 3.0
04/04:30am 13.8 13.9 12.8 94 0.6 N 4 6 2 3 - - 2.8
04/04:20am 13.9 14.0 12.8 93 0.6 N 4 6 2 3 - - 2.6
04/04:10am 13.9 14.0 12.8 93 0.6 NNW 4 6 2 3 - - 2.6
04/04:00am 13.9 14.0 12.8 93 0.6 NNW 4 6 2 3 - - 2.4
04/03:50am 13.9 14.0 12.8 93 0.6 N 4 4 2 2 - - 2.4
04/03:40am 13.9 14.0 12.8 93 0.6 N 4 6 2 3 - - 2.4
04/03:30am 13.9 13.6 12.7 92 0.7 NNE 6 6 3 3 - - 2.4
04/03:20am 13.9 14.0 12.7 92 0.7 NNE 4 6 2 3 - - 2.4
04/03:10am 13.9 14.0 12.8 93 0.6 NNE 4 6 2 3 - - 2.4
04/03:00am 14.0 14.2 12.9 93 0.6 N 4 6 2 3 - - 2.4
04/02:50am 14.0 14.5 12.9 93 0.6 N 2 4 1 2 - - 2.4
04/02:40am 14.0 14.2 12.9 93 0.6 N 4 4 2 2 - - 2.4
04/02:30am 14.0 14.5 12.8 92 0.7 N 2 4 1 2 - - 2.4
04/02:20am 14.0 14.5 12.8 92 0.7 NE 2 4 1 2 - - 2.4
04/02:10am 14.0 14.5 12.8 92 0.7 N 2 4 1 2 - - 2.4
04/02:00am 14.0 14.2 12.9 93 0.6 NNW 4 6 2 3 - - 2.4
04/01:50am 14.0 14.1 12.8 92 0.7 N 4 4 2 2 - - 2.4
04/01:40am 14.0 14.1 12.8 92 0.7 NNW 4 4 2 2 - - 2.4
04/01:30am 14.0 14.1 12.8 92 0.7 N 4 6 2 3 - - 2.4
04/01:20am 14.1 14.2 12.8 92 0.7 N 4 4 2 2 - - 2.4
04/01:10am 14.1 14.2 12.7 91 0.8 N 4 4 2 2 - - 2.4
04/01:00am 13.9 14.6 12.2 89 0.9 CALM 0 4 0 2 - - 2.4
04/12:50am 13.8 14.0 12.0 89 1.0 SW 2 2 1 1 - - 2.4
04/12:40am 13.8 14.5 12.1 89 0.9 CALM 0 0 0 0 - - 2.4
04/12:30am 13.8 14.5 12.2 90 0.9 CALM 0 2 0 1 - - 2.4
04/12:20am 13.8 14.5 12.3 91 0.8 CALM 0 2 0 1 - - 2.4
04/12:10am 13.9 14.3 12.5 91 0.8 S 2 2 1 1 - - 2.4
04/12:00am 14.0 14.5 12.7 92 0.7 S 2 2 1 1 - - 2.4
 
Date/Time
EST
Temp
°C
App
Temp
°C
Dew
Point
°C
Rel
Hum
%
Delta-T
°C
Wind Press
QNH
hPa
Press
MSL
hPa
Rain since
9am
mm
Dir  Spd
km/h
Gust
km/h
Spd
kts
Gust
kts
03/11:50pm 14.1 14.6 12.7 91 0.8 SW 2 2 1 1 - - 2.4
03/11:40pm 14.1 14.6 12.7 91 0.8 S 2 4 1 2 - - 2.4
03/11:30pm 14.1 14.9 12.6 91 0.8 CALM 0 0 0 0 - - 2.4
03/11:20pm 14.1 14.9 12.5 90 0.9 CALM 0 2 0 1 - - 2.4
03/11:10pm 14.2 14.6 12.4 89 1.0 S 2 4 1 2 - - 2.2
03/11:00pm 14.4 14.8 12.4 88 1.1 S 2 2 1 1 - - 2.2
03/10:50pm 14.6 14.7 12.8 89 1.0 E 4 7 2 4 - - 2.2
03/10:40pm 14.7 14.8 12.7 88 1.1 E 4 6 2 3 - - 2.0
03/10:30pm 14.7 15.3 13.1 90 0.9 ENE 2 4 1 2 - - 2.0
03/10:20pm 14.7 15.3 13.1 90 0.9 SE 2 4 1 2 - - 2.0
03/10:10pm 14.7 15.3 13.0 89 1.0 S 2 2 1 1 - - 2.0
03/10:00pm 14.7 15.7 13.1 90 0.9 CALM 0 2 0 1 - - 2.0
03/09:50pm 14.7 15.7 13.1 90 0.9 CALM 0 2 0 1 - - 2.0
03/09:40pm 14.7 15.7 13.2 91 0.9 CALM 0 2 0 1 - - 2.0
03/09:30pm 14.7 15.7 13.1 90 0.9 CALM 0 0 0 0 - - 2.0
03/09:20pm 14.7 15.7 13.2 91 0.9 CALM 0 0 0 0 - - 2.0
03/09:10pm 14.7 15.7 13.3 91 0.8 CALM 0 2 0 1 - - 2.0
03/09:00pm 14.7 15.4 13.3 91 0.8 SSW 2 4 1 2 - - 2.0
03/08:50pm 14.8 15.5 13.4 91 0.8 S 2 4 1 2 - - 2.0
03/08:40pm 14.8 15.5 13.5 92 0.7 S 2 4 1 2 - - 2.0
03/08:30pm 14.8 15.5 13.5 92 0.7 S 2 4 1 2 - - 2.0
03/08:20pm 14.8 15.1 13.5 92 0.7 S 4 4 2 2 - - 2.0
03/08:10pm 14.8 15.5 13.5 92 0.7 S 2 4 1 2 - - 2.0
03/08:00pm 14.8 15.5 13.5 92 0.7 S 2 4 1 2 - - 2.0
03/07:50pm 14.8 15.5 13.5 92 0.7 S 2 4 1 2 - - 2.0
03/07:40pm 14.9 15.7 13.6 92 0.7 SSE 2 2 1 1 - - 2.0
03/07:30pm 15.0 15.8 13.7 92 0.7 S 2 4 1 2 - - 2.0
03/07:20pm 15.1 15.9 13.8 92 0.7 S 2 4 1 2 - - 2.0
03/07:10pm 15.2 15.7 13.9 92 0.8 S 4 4 2 2 - - 2.0
03/07:00pm 15.3 15.8 14.0 92 0.8 S 4 4 2 2 - - 1.8
03/06:50pm 15.4 16.3 14.1 92 0.8 SSW 2 4 1 2 - - 1.8
03/06:40pm 15.6 16.6 14.2 91 0.8 SSW 2 4 1 2 - - 1.6
03/06:30pm 15.6 16.6 14.2 91 0.8 SW 2 4 1 2 - - 1.4
03/06:20pm 15.6 16.1 14.1 91 0.9 WSW 4 4 2 2 - - 1.4
03/06:10pm 15.8 16.8 14.3 91 0.9 WSW 2 4 1 2 - - 1.2
03/06:00pm 16.0 17.0 14.4 90 0.9 WSW 2 2 1 1 - - 1.0
03/05:50pm 16.0 17.0 14.3 90 1.0 S 2 2 1 1 - - 0.8
03/05:40pm 16.0 16.9 14.1 88 1.1 E 2 4 1 2 - - 0.8
03/05:30pm 16.2 17.1 14.1 87 1.2 SSW 2 4 1 2 - - 0.6
03/05:20pm 16.2 17.5 14.0 87 1.3 CALM 0 0 0 0 - - 0.6
03/05:10pm 16.2 17.3 13.6 84 1.5 CALM 0 0 0 0 - - 0.4
03/05:00pm 16.3 17.1 13.7 84 1.5 N 2 4 1 2 - - 0.4
03/04:50pm 16.3 16.7 13.6 84 1.6 NNE 4 7 2 4 - - 0.2
03/04:40pm 16.5 17.3 13.7 83 1.6 E 2 6 1 3 - - 0.2
03/04:30pm 16.6 17.3 13.3 81 1.9 NE 2 4 1 2 - - 0.0
03/04:20pm 16.8 17.0 13.2 79 2.1 N 4 6 2 3 - - 0.0
03/04:10pm 16.9 17.4 12.8 77 2.3 NW 2 2 1 1 - - 0.0
03/04:00pm 16.9 17.4 12.9 77 2.3 NW 2 4 1 2 - - 0.0
03/03:50pm 16.9 17.1 12.9 77 2.3 NW 4 4 2 2 - - 0.0
03/03:40pm 17.0 17.1 12.7 76 2.5 NW 4 4 2 2 - - 0.0
03/03:30pm 17.0 17.1 12.7 76 2.5 N 4 4 2 2 - - 0.0
03/03:20pm 17.0 17.0 12.3 74 2.7 NE 4 6 2 3 - - 0.0
03/03:10pm 17.1 17.4 12.2 73 2.8 NE 2 4 1 2 - - 0.0
03/03:00pm 17.1 17.1 12.4 74 2.7 NNE 4 6 2 3 - - 0.0
03/02:50pm 17.2 17.3 12.6 74 2.6 N 4 6 2 3 - - 0.0
03/02:40pm 17.1 17.1 12.4 74 2.7 N 4 4 2 2 - - 0.0
03/02:30pm 17.1 16.9 11.9 71 2.9 N 4 6 2 3 - - 0.0
03/02:20pm 17.0 16.9 12.0 72 2.8 N 4 6 2 3 - - 0.0
03/02:10pm 17.0 16.5 12.0 72 2.8 WNW 6 6 3 3 - - 0.0
03/02:00pm 16.9 16.4 11.9 72 2.8 NW 6 7 3 4 - - 0.0
03/01:50pm 16.8 16.3 12.2 74 2.6 NW 6 7 3 4 - - 0.0
03/01:40pm 16.8 16.3 12.1 74 2.6 NW 6 7 3 4 - - 0.0
03/01:30pm 16.9 16.5 12.3 74 2.6 N 6 7 3 4 - - 0.0
03/01:20pm 17.2 16.7 12.1 72 2.9 NNW 6 7 3 4 - - 0.0
03/01:10pm 17.1 16.9 11.7 70 3.0 NNW 4 6 2 3 - - 0.0
03/01:00pm 16.8 16.3 12.0 73 2.7 NNW 6 7 3 4 - - 0.0
03/12:50pm 16.7 16.2 12.0 74 2.6 N 6 9 3 5 - - 0.0
03/12:40pm 16.8 16.5 11.6 71 2.9 NW 4 4 2 2 - - 0.0
03/12:30pm 16.6 16.4 11.7 73 2.7 N 4 6 2 3 - - 0.0
03/12:20pm 16.7 16.4 11.6 72 2.8 N 4 6 2 3 - - 0.0
03/12:10pm 16.5 16.3 11.7 73 2.7 NW 4 6 2 3 - - 0.0
03/12:00pm 16.4 16.5 11.4 72 2.8 WSW 2 4 1 2 - - 0.0
03/11:50am 16.2 16.0 11.8 75 2.5 N 4 6 2 3 - - 0.0
03/11:40am 16.2 15.9 11.5 73 2.6 NNE 4 6 2 3 - - 0.0
03/11:30am 15.9 16.1 12.0 77 2.2 N 2 4 1 2 - - 0.0
03/11:20am 15.6 15.8 11.8 78 2.1 N 2 4 1 2 - - 0.0
03/11:10am 15.1 14.8 11.6 79 1.9 NNE 4 6 2 3 - - 0.0
03/11:00am 14.8 14.6 11.7 82 1.7 NE 4 6 2 3 - - 0.0
03/10:50am 14.5 15.0 11.7 83 1.5 CALM 0 4 0 2 - - 0.0
03/10:40am 14.3 14.4 11.5 83 1.5 NW 2 2 1 1 - - 0.0
03/10:30am 14.2 14.4 11.7 85 1.4 NNW 2 4 1 2 - - 0.0
03/10:20am 14.2 14.0 11.9 86 1.3 N 4 7 2 4 - - 0.0
03/10:10am 14.0 13.8 11.8 86 1.2 N 4 6 2 3 - - 0.0
03/10:00am 13.9 13.7 11.8 87 1.2 NNW 4 6 2 3 - - 25.0
03/09:50am 13.9 13.3 11.8 87 1.2 NNW 6 7 3 4 - - 25.0
03/09:40am 13.9 13.1 11.6 86 1.3 N 7 9 4 5 - - 25.0
03/09:30am 13.9 13.3 11.8 87 1.2 N 6 7 3 4 - - 25.0
03/09:20am 13.8 13.6 11.7 87 1.2 N 4 6 2 3 - - 25.0
03/09:10am 13.7 13.4 11.6 87 1.2 NNE 4 6 2 3 - - 25.0
03/09:00am 13.5 13.2 11.5 88 1.1 NNW 4 6 2 3 - - 25.0
03/08:50am 13.4 13.1 11.5 88 1.0 WNW 4 6 2 3 - - 25.0
03/08:40am 13.3 13.0 11.4 88 1.0 NW 4 6 2 3 - - 25.0
03/08:30am 13.1 13.2 11.4 89 0.9 NW 2 4 1 2 - - 25.0
03/08:20am 13.0 12.7 11.3 89 0.9 NW 4 6 2 3 - - 25.0
03/08:10am 12.8 12.0 11.2 90 0.9 NW 6 6 3 3 - - 25.0
03/08:00am 12.8 12.4 11.1 89 0.9 NW 4 6 2 3 - - 25.0
03/07:50am 12.7 12.3 11.0 89 0.9 NW 4 6 2 3 - - 25.0
03/07:40am 12.6 12.1 10.9 89 0.9 NNW 4 4 2 2 - - 25.0
03/07:30am 12.5 12.0 10.6 88 1.0 N 4 4 2 2 - - 25.0
03/07:20am 12.5 12.0 10.6 88 1.0 NNW 4 4 2 2 - - 25.0
03/07:10am 12.4 12.2 10.5 88 1.0 NW 2 4 1 2 - - 25.0
03/07:00am 12.5 12.3 10.5 88 1.1 NW 2 4 1 2 - - 25.0
03/06:50am 12.6 12.0 10.5 87 1.1 N 4 6 2 3 - - 25.0

Latest Capital City Observations: Canberra | Sydney | Melbourne | Brisbane | Adelaide | Perth | Hobart | Darwin

Other formats

Comma delimited format used in spreadsheet applications
http://www.bom.gov.au/fwo/IDN60903/IDN60903.99146.axf

JavaScript Object Notation format (JSON) in row-major order
http://www.bom.gov.au/fwo/IDN60903/IDN60903.99146.json

Data quality

Most of these data are generated automatically and are frequently updated. Quality checks on data are not normally performed. It is possible for incorrect values to appear. Refer to information at About Latest Weather Observations and please check the disclaimer before using these data.